Time,TemperatureF,DewpointF,PressureIn,WindDirection,WindDirectionDegrees,WindSpeedMPH,WindSpeedGustMPH,Humidity,HourlyPrecipIn,Conditions,Clouds,dailyrainin,SoftwareType,DateUTC
2013-03-02 00:00:00,48.7,26.7,29.85,WNW,292,0.0,1.6,42,0.00,,---,0.00,VWS V14.01,2013-03-02 05:00:00,
2013-03-02 00:01:00,49.6,28.1,29.85,NW,315,0.0,0.0,43,0.00,,---,0.00,VWS V14.01,2013-03-02 05:01:00,
2013-03-02 00:04:00,49.5,27.9,29.85,NW,315,0.0,0.0,43,0.00,,---,0.00,VWS V14.01,2013-03-02 05:04:00,
2013-03-02 00:05:00,48.7,26.7,29.85,West,270,3.6,4.9,42,0.00,,---,0.00,VWS V14.01,2013-03-02 05:05:00,
2013-03-02 00:06:00,49.5,27.9,29.85,West,270,1.3,3.4,43,0.00,,---,0.00,VWS V14.01,2013-03-02 05:06:00,
2013-03-02 00:10:00,48.6,26.5,29.85,SSW,202,0.0,3.6,42,0.00,,---,0.00,VWS V14.01,2013-03-02 05:10:00,
2013-03-02 00:11:00,49.5,27.3,29.85,West,270,3.6,4.0,42,0.00,,---,0.00,VWS V14.01,2013-03-02 05:11:00,
2013-03-02 00:15:00,48.4,26.4,29.88,WNW,292,0.0,3.4,42,0.00,,---,0.00,VWS V14.01,2013-03-02 05:15:00,
2013-03-02 00:16:00,49.5,27.3,29.85,West,270,0.9,3.6,42,0.00,,---,0.00,VWS V14.01,2013-03-02 05:16:00,
2013-03-02 00:20:00,48.4,26.4,29.88,NW,315,3.1,3.6,42,0.00,,---,0.00,VWS V14.01,2013-03-02 05:20:00,
2013-03-02 00:21:00,49.3,27.2,29.85,WNW,292,1.3,2.7,42,0.00,,---,0.00,VWS V14.01,2013-03-02 05:21:00,
2013-03-02 00:25:00,48.4,26.4,29.88,WNW,292,0.0,3.1,42,0.00,,---,0.00,VWS V14.01,2013-03-02 05:25:00,
2013-03-02 00:26:00,49.3,27.2,29.85,West,270,0.0,2.9,42,0.00,,---,0.00,VWS V14.01,2013-03-02 05:26:00,
2013-03-02 00:30:00,48.4,26.4,29.85,WNW,292,2.7,3.8,42,0.00,,---,0.00,VWS V14.01,2013-03-02 05:30:00,
2013-03-02 00:31:00,49.3,27.2,29.85,NW,315,2.7,4.3,42,0.00,,---,0.00,VWS V14.01,2013-03-02 05:31:00,
2013-03-02 00:35:00,48.2,26.2,29.85,NNW,338,1.3,3.8,42,0.00,,---,0.00,VWS V14.01,2013-03-02 05:35:00,
2013-03-02 00:36:00,49.1,27.0,29.85,West,270,1.3,2.9,42,0.00,,---,0.00,VWS V14.01,2013-03-02 05:36:00,
2013-03-02 00:40:00,48.2,26.2,29.85,NNW,338,1.6,3.1,42,0.00,,---,0.00,VWS V14.01,2013-03-02 05:40:00,
2013-03-02 00:41:00,49.1,27.0,29.85,WNW,292,2.7,3.6,42,0.00,,---,0.00,VWS V14.01,2013-03-02 05:41:00,
2013-03-02 00:45:00,48.2,26.2,29.85,WNW,292,0.0,2.5,42,0.00,,---,0.00,VWS V14.01,2013-03-02 05:45:00,
2013-03-02 00:46:00,49.1,26.4,29.85,NNW,338,3.8,4.0,41,0.00,,---,0.00,VWS V14.01,2013-03-02 05:46:00,
2013-03-02 00:50:00,48.2,26.2,29.85,NW,315,1.3,3.4,42,0.00,,---,0.00,VWS V14.01,2013-03-02 05:50:00,
2013-03-02 00:51:00,49.1,26.4,29.85,NW,315,1.6,5.8,41,0.00,,---,0.00,VWS V14.01,2013-03-02 05:51:00,
2013-03-02 00:55:00,48.0,26.0,29.85,WNW,292,0.9,2.7,42,0.00,,---,0.00,VWS V14.01,2013-03-02 05:55:00,
2013-03-02 00:56:00,48.9,26.3,29.85,WNW,292,0.0,4.3,41,0.00,,---,0.00,VWS V14.01,2013-03-02 05:56:00,
2013-03-02 01:00:00,48.0,26.0,29.85,West,270,0.0,5.8,42,0.00,,---,0.00,VWS V14.01,2013-03-02 06:00:00,
2013-03-02 01:01:00,48.7,26.7,29.85,WNW,292,0.0,1.6,42,0.00,,---,0.00,VWS V14.01,2013-03-02 06:01:00,
2013-03-02 01:05:00,48.0,26.0,29.85,West,270,0.0,0.0,42,0.00,,---,0.00,VWS V14.01,2013-03-02 06:05:00,
2013-03-02 01:06:00,48.7,26.7,29.85,West,270,3.6,4.9,42,0.00,,---,0.00,VWS V14.01,2013-03-02 06:06:00,
2013-03-02 01:10:00,48.0,26.0,29.85,NW,315,0.0,0.0,42,0.00,,---,0.00,VWS V14.01,2013-03-02 06:10:00,
2013-03-02 01:11:00,48.6,26.5,29.85,SSW,202,0.0,3.6,42,0.00,,---,0.00,VWS V14.01,2013-03-02 06:11:00,
2013-03-02 01:15:00,48.0,26.0,29.85,WNW,292,0.0,0.0,42,0.00,,---,0.00,VWS V14.01,2013-03-02 06:15:00,
2013-03-02 01:16:00,48.4,26.4,29.88,WNW,292,0.0,3.4,42,0.00,,---,0.00,VWS V14.01,2013-03-02 06:16:00,
2013-03-02 01:20:00,47.8,25.9,29.85,SSW,202,0.0,3.4,42,0.00,,---,0.00,VWS V14.01,2013-03-02 06:20:00,
2013-03-02 01:21:00,48.4,26.4,29.88,NW,315,3.1,3.6,42,0.00,,---,0.00,VWS V14.01,2013-03-02 06:21:00,
2013-03-02 01:25:00,47.8,25.9,29.85,WNW,292,0.0,2.5,42,0.00,,---,0.00,VWS V14.01,2013-03-02 06:25:00,
2013-03-02 01:26:00,48.4,26.4,29.88,WNW,292,0.0,3.1,42,0.00,,---,0.00,VWS V14.01,2013-03-02 06:26:00,
2013-03-02 01:30:00,47.8,25.9,29.85,WNW,292,0.0,2.9,42,0.00,,---,0.00,VWS V14.01,2013-03-02 06:30:00,
2013-03-02 01:31:00,48.4,26.4,29.85,WNW,292,2.7,3.8,42,0.00,,---,0.00,VWS V14.01,2013-03-02 06:31:00,
2013-03-02 01:35:00,47.7,25.7,29.85,WNW,292,0.9,2.7,42,0.00,,---,0.00,VWS V14.01,2013-03-02 06:35:00,
2013-03-02 01:36:00,48.2,26.2,29.85,NNW,338,1.3,3.8,42,0.00,,---,0.00,VWS V14.01,2013-03-02 06:36:00,
2013-03-02 01:40:00,47.7,25.7,29.85,WNW,292,0.0,1.6,42,0.00,,---,0.00,VWS V14.01,2013-03-02 06:40:00,
2013-03-02 01:41:00,48.2,26.2,29.85,NNW,338,1.6,3.1,42,0.00,,---,0.00,VWS V14.01,2013-03-02 06:41:00,
2013-03-02 01:45:00,47.7,25.7,29.85,WNW,292,0.0,0.0,42,0.00,,---,0.00,VWS V14.01,2013-03-02 06:45:00,
2013-03-02 01:46:00,48.2,26.2,29.85,WNW,292,0.0,2.5,42,0.00,,---,0.00,VWS V14.01,2013-03-02 06:46:00,
2013-03-02 01:50:00,47.5,25.5,29.85,WSW,248,0.0,0.0,42,0.00,,---,0.00,VWS V14.01,2013-03-02 06:50:00,
2013-03-02 01:51:00,48.2,26.2,29.85,NW,315,1.3,3.4,42,0.00,,---,0.00,VWS V14.01,2013-03-02 06:51:00,
2013-03-02 01:55:00,47.5,25.5,29.85,NNE,22,0.0,0.0,42,0.00,,---,0.00,VWS V14.01,2013-03-02 06:55:00,
2013-03-02 01:56:00,48.0,26.0,29.85,WNW,292,0.9,2.7,42,0.00,,---,0.00,VWS V14.01,2013-03-02 06:56:00,
2013-03-02 02:00:00,47.3,25.4,29.85,WNW,292,0.0,2.5,42,0.00,,---,0.00,VWS V14.01,2013-03-02 07:00:00,
2013-03-02 02:01:00,48.0,26.0,29.85,West,270,0.0,5.8,42,0.00,,---,0.00,VWS V14.01,2013-03-02 07:01:00,
2013-03-02 02:05:00,47.3,25.4,29.85,NW,315,0.0,0.0,42,0.00,,---,0.00,VWS V14.01,2013-03-02 07:05:00,
2013-03-02 02:06:00,48.0,26.0,29.85,West,270,0.0,0.0,42,0.00,,---,0.00,VWS V14.01,2013-03-02 07:06:00,
2013-03-02 02:10:00,47.1,25.2,29.85,NW,315,0.0,0.0,42,0.00,,---,0.00,VWS V14.01,2013-03-02 07:10:00,
2013-03-02 02:11:00,48.0,26.0,29.85,NW,315,0.0,0.0,42,0.00,,---,0.00,VWS V14.01,2013-03-02 07:11:00,
2013-03-02 02:15:00,46.8,24.9,29.85,WNW,292,1.3,2.5,42,0.00,,---,0.00,VWS V14.01,2013-03-02 07:15:00,
2013-03-02 02:16:00,48.0,26.0,29.85,WNW,292,0.0,0.0,42,0.00,,---,0.00,VWS V14.01,2013-03-02 07:16:00,
2013-03-02 02:20:00,46.6,24.7,29.85,WNW,292,0.0,1.3,42,0.00,,---,0.00,VWS V14.01,2013-03-02 07:20:00,
2013-03-02 02:21:00,47.8,25.9,29.85,SSW,202,0.0,3.4,42,0.00,,---,0.00,VWS V14.01,2013-03-02 07:21:00,
2013-03-02 02:25:00,46.4,24.6,29.85,WNW,292,0.0,0.0,42,0.00,,---,0.00,VWS V14.01,2013-03-02 07:25:00,
2013-03-02 02:26:00,47.8,25.9,29.85,WNW,292,0.0,2.5,42,0.00,,---,0.00,VWS V14.01,2013-03-02 07:26:00,
2013-03-02 02:30:00,46.2,25.0,29.85,WNW,292,0.0,2.2,43,0.00,,---,0.00,VWS V14.01,2013-03-02 07:30:00,
2013-03-02 02:31:00,47.8,25.9,29.85,WNW,292,0.0,2.9,42,0.00,,---,0.00,VWS V14.01,2013-03-02 07:31:00,
2013-03-02 02:35:00,46.0,24.8,29.85,West,270,0.0,1.3,43,0.00,,---,0.00,VWS V14.01,2013-03-02 07:35:00,
2013-03-02 02:36:00,47.7,25.7,29.85,WNW,292,0.9,2.7,42,0.00,,---,0.00,VWS V14.01,2013-03-02 07:36:00,
2013-03-02 02:40:00,45.9,24.6,29.85,WNW,292,0.0,0.0,43,0.00,,---,0.00,VWS V14.01,2013-03-02 07:40:00,
2013-03-02 02:41:00,47.7,25.7,29.85,WNW,292,0.0,1.6,42,0.00,,---,0.00,VWS V14.01,2013-03-02 07:41:00,
2013-03-02 02:45:00,45.5,24.3,29.85,NW,315,0.0,0.0,43,0.00,,---,0.00,VWS V14.01,2013-03-02 07:45:00,
2013-03-02 02:46:00,47.7,25.7,29.85,WNW,292,0.0,0.0,42,0.00,,---,0.00,VWS V14.01,2013-03-02 07:46:00,
2013-03-02 02:50:00,45.3,24.2,29.85,NNW,338,0.0,0.0,43,0.00,,---,0.00,VWS V14.01,2013-03-02 07:50:00,
2013-03-02 02:51:00,47.5,25.5,29.85,WSW,248,0.0,0.0,42,0.00,,---,0.00,VWS V14.01,2013-03-02 07:51:00,
2013-03-02 02:55:00,45.3,24.2,29.85,WNW,292,0.0,0.0,43,0.00,,---,0.00,VWS V14.01,2013-03-02 07:55:00,
2013-03-02 02:56:00,47.5,25.5,29.85,NNE,22,0.0,0.0,42,0.00,,---,0.00,VWS V14.01,2013-03-02 07:56:00,
2013-03-02 03:00:00,44.8,23.7,29.85,NW,315,0.0,0.0,43,0.00,,---,0.00,VWS V14.01,2013-03-02 08:00:00,
2013-03-02 03:01:00,47.3,25.4,29.85,WNW,292,0.0,2.5,42,0.00,,---,0.00,VWS V14.01,2013-03-02 08:01:00,
2013-03-02 03:05:00,44.6,23.5,29.85,WNW,292,0.0,0.0,43,0.00,,---,0.00,VWS V14.01,2013-03-02 08:05:00,
2013-03-02 03:06:00,47.3,25.4,29.85,NW,315,0.0,0.0,42,0.00,,---,0.00,VWS V14.01,2013-03-02 08:06:00,
2013-03-02 03:10:00,44.1,23.6,29.85,WNW,292,0.0,0.0,44,0.00,,---,0.00,VWS V14.01,2013-03-02 08:10:00,
2013-03-02 03:11:00,47.1,25.2,29.85,NW,315,0.0,0.0,42,0.00,,---,0.00,VWS V14.01,2013-03-02 08:11:00,
2013-03-02 03:15:00,43.7,23.2,29.85,WNW,292,0.0,0.0,44,0.00,,---,0.00,VWS V14.01,2013-03-02 08:15:00,
2013-03-02 03:16:00,46.8,24.9,29.85,WNW,292,1.3,2.5,42,0.00,,---,0.00,VWS V14.01,2013-03-02 08:16:00,
2013-03-02 03:20:00,43.3,22.9,29.85,WNW,292,0.0,0.0,44,0.00,,---,0.00,VWS V14.01,2013-03-02 08:20:00,
2013-03-02 03:21:00,46.6,24.7,29.85,WNW,292,0.0,1.3,42,0.00,,---,0.00,VWS V14.01,2013-03-02 08:21:00,
2013-03-02 03:25:00,43.0,22.6,29.85,WNW,292,0.0,0.0,44,0.00,,---,0.00,VWS V14.01,2013-03-02 08:25:00,
2013-03-02 03:26:00,46.4,24.6,29.85,WNW,292,0.0,0.0,42,0.00,,---,0.00,VWS V14.01,2013-03-02 08:26:00,
2013-03-02 03:30:00,42.4,22.6,29.85,West,270,0.0,0.0,45,0.00,,---,0.00,VWS V14.01,2013-03-02 08:30:00,
2013-03-02 03:31:00,46.2,25.0,29.85,WNW,292,0.0,2.2,43,0.00,,---,0.00,VWS V14.01,2013-03-02 08:31:00,
2013-03-02 03:35:00,41.9,22.6,29.85,West,270,0.0,0.0,46,0.00,,---,0.00,VWS V14.01,2013-03-02 08:35:00,
2013-03-02 03:36:00,46.0,24.8,29.85,West,270,0.0,1.3,43,0.00,,---,0.00,VWS V14.01,2013-03-02 08:36:00,
2013-03-02 03:40:00,41.2,22.0,29.85,West,270,0.0,0.0,46,0.00,,---,0.00,VWS V14.01,2013-03-02 08:40:00,
2013-03-02 03:41:00,45.9,24.6,29.85,WNW,292,0.0,0.0,43,0.00,,---,0.00,VWS V14.01,2013-03-02 08:41:00,
2013-03-02 03:45:00,40.8,22.2,29.85,West,270,0.0,0.0,47,0.00,,---,0.00,VWS V14.01,2013-03-02 08:45:00,
2013-03-02 03:46:00,45.5,24.3,29.85,NW,315,0.0,0.0,43,0.00,,---,0.00,VWS V14.01,2013-03-02 08:46:00,
2013-03-02 03:50:00,40.1,22.0,29.85,ESE,112,0.0,0.0,48,0.00,,---,0.00,VWS V14.01,2013-03-02 08:50:00,
2013-03-02 03:55:00,45.3,24.2,29.85,West,270,0.0,0.0,43,0.00,,---,0.00,VWS V14.01,2013-03-02 08:55:00,
2013-03-02 04:00:00,45.0,23.8,29.85,WNW,292,0.0,0.0,43,0.00,,---,0.00,VWS V14.01,2013-03-02 09:00:00,
2013-03-02 04:05:00,44.6,23.5,29.85,WNW,292,0.0,0.0,43,0.00,,---,0.00,VWS V14.01,2013-03-02 09:05:00,
2013-03-02 04:10:00,44.1,23.6,29.85,WNW,292,0.0,0.0,44,0.00,,---,0.00,VWS V14.01,2013-03-02 09:10:00,
2013-03-02 04:15:00,43.7,23.2,29.85,WNW,292,0.0,0.0,44,0.00,,---,0.00,VWS V14.01,2013-03-02 09:15:00,
2013-03-02 04:20:00,43.3,22.9,29.85,WNW,292,0.0,0.0,44,0.00,,---,0.00,VWS V14.01,2013-03-02 09:20:00,
2013-03-02 04:25:00,43.0,22.6,29.85,WNW,292,0.0,0.0,44,0.00,,---,0.00,VWS V14.01,2013-03-02 09:25:00,
2013-03-02 04:30:00,42.4,22.6,29.85,West,270,0.0,0.0,45,0.00,,---,0.00,VWS V14.01,2013-03-02 09:30:00,
2013-03-02 04:35:00,42.1,22.3,29.85,West,270,0.0,0.0,45,0.00,,---,0.00,VWS V14.01,2013-03-02 09:35:00,
2013-03-02 04:40:00,41.2,22.0,29.85,West,270,0.0,0.0,46,0.00,,---,0.00,VWS V14.01,2013-03-02 09:40:00,
2013-03-02 04:45:00,40.8,22.2,29.85,West,270,0.0,0.0,47,0.00,,---,0.00,VWS V14.01,2013-03-02 09:45:00,
2013-03-02 04:50:00,40.3,22.2,29.85,SE,135,0.0,0.0,48,0.00,,---,0.00,VWS V14.01,2013-03-02 09:50:00,
2013-03-02 04:55:00,39.7,22.2,29.85,SE,135,0.0,0.0,49,0.00,,---,0.00,VWS V14.01,2013-03-02 09:55:00,
2013-03-02 05:00:00,39.9,22.3,29.85,SSE,158,0.0,0.0,49,0.00,,---,0.00,VWS V14.01,2013-03-02 10:00:00,
2013-03-02 05:05:00,40.3,23.1,29.85,SSW,202,0.0,0.0,50,0.00,,---,0.00,VWS V14.01,2013-03-02 10:05:00,
2013-03-02 05:10:00,37.2,23.8,29.82,WSW,248,0.0,0.0,58,0.00,,---,0.00,VWS V14.01,2013-03-02 10:10:00,
2013-03-02 05:11:00,39.7,23.1,29.85,ESE,112,0.0,0.0,51,0.00,,---,0.00,VWS V14.01,2013-03-02 10:11:00,
2013-03-02 05:15:00,37.4,24.0,29.85,WSW,248,0.0,0.0,58,0.00,,---,0.00,VWS V14.01,2013-03-02 10:15:00,
2013-03-02 05:20:00,39.4,22.8,29.82,South,180,0.0,0.0,51,0.00,,---,0.00,VWS V14.01,2013-03-02 10:20:00,
2013-03-02 05:25:00,39.2,23.1,29.82,South,180,0.0,0.0,52,0.00,,---,0.00,VWS V14.01,2013-03-02 10:25:00,
2013-03-02 05:30:00,39.0,23.4,29.82,South,180,0.0,0.0,53,0.00,,---,0.00,VWS V14.01,2013-03-02 10:30:00,
2013-03-02 05:35:00,38.8,23.2,29.82,South,180,0.0,0.0,53,0.00,,---,0.00,VWS V14.01,2013-03-02 10:35:00,
2013-03-02 05:40:00,38.7,23.5,29.82,SSW,202,0.0,0.0,54,0.00,,---,0.00,VWS V14.01,2013-03-02 10:40:00,
2013-03-02 05:45:00,38.1,23.4,29.85,SSW,202,0.0,0.0,55,0.00,,---,0.00,VWS V14.01,2013-03-02 10:45:00,
2013-03-02 05:50:00,37.8,23.1,29.85,SSW,202,0.0,0.0,55,0.00,,---,0.00,VWS V14.01,2013-03-02 10:50:00,
2013-03-02 05:55:00,38.7,26.4,29.85,SSE,158,0.0,0.0,61,0.00,,---,0.00,VWS V14.01,2013-03-02 10:55:00,
2013-03-02 05:56:00,37.6,23.3,29.85,SSW,202,0.0,0.0,56,0.00,,---,0.00,VWS V14.01,2013-03-02 10:56:00,
2013-03-02 06:00:00,38.5,26.6,29.85,SSW,202,0.0,0.0,62,0.00,,---,0.00,VWS V14.01,2013-03-02 11:00:00,
2013-03-02 06:01:00,37.4,23.1,29.82,WSW,248,0.0,0.0,56,0.00,,---,0.00,VWS V14.01,2013-03-02 11:01:00,
2013-03-02 06:05:00,38.7,26.8,29.85,SSW,202,0.0,0.0,62,0.00,,---,0.00,VWS V14.01,2013-03-02 11:05:00,
2013-03-02 06:06:00,37.4,23.1,29.82,WSW,248,0.0,0.0,56,0.00,,---,0.00,VWS V14.01,2013-03-02 11:06:00,
2013-03-02 06:10:00,39.2,27.3,29.85,SSW,202,0.0,0.0,62,0.00,,---,0.00,VWS V14.01,2013-03-02 11:10:00,
2013-03-02 06:11:00,37.2,23.8,29.82,WSW,248,0.0,0.0,58,0.00,,---,0.00,VWS V14.01,2013-03-02 11:11:00,
2013-03-02 06:15:00,39.7,28.2,29.85,ESE,112,0.0,0.0,63,0.00,,---,0.00,VWS V14.01,2013-03-02 11:15:00,
2013-03-02 06:16:00,37.4,24.0,29.85,WSW,248,0.0,0.0,58,0.00,,---,0.00,VWS V14.01,2013-03-02 11:16:00,
2013-03-02 06:20:00,40.1,28.5,29.85,ESE,112,0.0,0.0,63,0.00,,---,0.00,VWS V14.01,2013-03-02 11:20:00,
2013-03-02 06:21:00,37.8,24.3,29.85,WSW,248,0.0,0.0,58,0.00,,---,0.00,VWS V14.01,2013-03-02 11:21:00,
2013-03-02 06:25:00,40.3,28.7,29.85,South,180,0.0,0.0,63,0.00,,---,0.00,VWS V14.01,2013-03-02 11:25:00,
2013-03-02 06:26:00,38.7,25.6,29.85,WSW,248,0.0,0.0,59,0.00,,---,0.00,VWS V14.01,2013-03-02 11:26:00,
2013-03-02 06:30:00,40.5,28.9,29.85,South,180,0.0,0.0,63,0.00,,---,0.00,VWS V14.01,2013-03-02 11:30:00,
2013-03-02 06:31:00,39.4,26.7,29.85,WSW,248,0.0,0.0,60,0.00,,---,0.00,VWS V14.01,2013-03-02 11:31:00,
2013-03-02 06:35:00,41.0,29.4,29.85,SSW,202,0.0,0.0,63,0.00,,---,0.00,VWS V14.01,2013-03-02 11:35:00,
2013-03-02 06:36:00,39.4,26.7,29.85,WSW,248,0.0,0.0,60,0.00,,---,0.00,VWS V14.01,2013-03-02 11:36:00,
2013-03-02 06:40:00,41.0,29.4,29.85,SSW,202,0.0,0.0,63,0.00,,---,0.00,VWS V14.01,2013-03-02 11:40:00,
2013-03-02 06:41:00,39.2,26.5,29.85,WSW,248,0.0,0.0,60,0.00,,---,0.00,VWS V14.01,2013-03-02 11:41:00,
2013-03-02 06:45:00,43.2,31.8,29.85,SSW,202,0.0,0.0,64,0.00,,---,0.00,VWS V14.01,2013-03-02 11:45:00,
2013-03-02 06:46:00,39.0,26.3,29.85,SSE,158,0.0,0.0,60,0.00,,---,0.00,VWS V14.01,2013-03-02 11:46:00,
2013-03-02 06:50:00,42.4,30.8,29.85,SSW,202,0.0,0.0,63,0.00,,---,0.00,VWS V14.01,2013-03-02 11:50:00,
2013-03-02 06:51:00,38.8,26.2,29.85,SSE,158,0.0,0.0,60,0.00,,---,0.00,VWS V14.01,2013-03-02 11:51:00,
2013-03-02 06:55:00,42.4,30.4,29.85,SSW,202,0.0,0.0,62,0.00,,---,0.00,VWS V14.01,2013-03-02 11:55:00,
2013-03-02 06:56:00,38.7,26.4,29.85,SSE,158,0.0,0.0,61,0.00,,---,0.00,VWS V14.01,2013-03-02 11:56:00,
2013-03-02 07:00:00,45.3,33.5,29.85,SSW,202,0.0,0.0,63,0.00,,---,0.00,VWS V14.01,2013-03-02 12:00:00,
2013-03-02 07:01:00,38.5,26.6,29.85,SSW,202,0.0,0.0,62,0.00,,---,0.00,VWS V14.01,2013-03-02 12:01:00,
2013-03-02 07:05:00,44.1,31.5,29.85,WSW,248,0.0,0.0,61,0.00,,---,0.00,VWS V14.01,2013-03-02 12:05:00,
2013-03-02 07:06:00,38.7,26.8,29.85,SSW,202,0.0,0.0,62,0.00,,---,0.00,VWS V14.01,2013-03-02 12:06:00,
2013-03-02 07:10:00,44.2,31.2,29.85,WNW,292,0.0,0.0,60,0.00,,---,0.00,VWS V14.01,2013-03-02 12:10:00,
2013-03-02 07:11:00,39.2,27.3,29.85,SSW,202,0.0,0.0,62,0.00,,---,0.00,VWS V14.01,2013-03-02 12:11:00,
2013-03-02 07:15:00,47.3,33.7,29.88,NNW,338,0.0,0.0,59,0.00,,---,0.00,VWS V14.01,2013-03-02 12:15:00,
2013-03-02 07:16:00,39.7,28.2,29.85,ESE,112,0.0,0.0,63,0.00,,---,0.00,VWS V14.01,2013-03-02 12:16:00,
2013-03-02 07:20:00,49.5,34.9,29.88,West,270,0.0,0.0,57,0.00,,---,0.00,VWS V14.01,2013-03-02 12:20:00,
2013-03-02 07:21:00,40.1,28.5,29.85,ESE,112,0.0,0.0,63,0.00,,---,0.00,VWS V14.01,2013-03-02 12:21:00,
2013-03-02 07:25:00,48.2,31.4,29.88,NW,315,0.0,0.0,52,0.00,,---,0.00,VWS V14.01,2013-03-02 12:25:00,
2013-03-02 07:26:00,40.3,28.7,29.85,South,180,0.0,0.0,63,0.00,,---,0.00,VWS V14.01,2013-03-02 12:26:00,
2013-03-02 07:30:00,50.9,32.4,29.88,West,270,0.0,0.0,49,0.00,,---,0.00,VWS V14.01,2013-03-02 12:30:00,
2013-03-02 07:31:00,40.5,28.9,29.85,South,180,0.0,0.0,63,0.00,,---,0.00,VWS V14.01,2013-03-02 12:31:00,
2013-03-02 07:35:00,51.1,32.1,29.88,WNW,292,0.0,0.0,48,0.00,,---,0.00,VWS V14.01,2013-03-02 12:35:00,
2013-03-02 07:36:00,41.0,29.4,29.85,SSW,202,0.0,0.0,63,0.00,,---,0.00,VWS V14.01,2013-03-02 12:36:00,
2013-03-02 07:40:00,51.8,31.7,29.88,NNW,338,1.6,3.6,46,0.00,,---,0.00,VWS V14.01,2013-03-02 12:40:00,
2013-03-02 07:41:00,41.0,29.4,29.85,SSW,202,0.0,0.0,63,0.00,,---,0.00,VWS V14.01,2013-03-02 12:41:00,
2013-03-02 07:45:00,52.5,30.7,29.88,West,270,0.0,1.6,43,0.00,,---,0.00,VWS V14.01,2013-03-02 12:45:00,
2013-03-02 07:46:00,43.2,31.8,29.85,SSW,202,0.0,0.0,64,0.00,,---,0.00,VWS V14.01,2013-03-02 12:46:00,
2013-03-02 07:50:00,52.9,28.6,29.88,West,270,4.9,4.9,39,0.00,,---,0.00,VWS V14.01,2013-03-02 12:50:00,
2013-03-02 07:51:00,42.4,30.8,29.85,SSW,202,0.0,0.0,63,0.00,,---,0.00,VWS V14.01,2013-03-02 12:51:00,
2013-03-02 07:55:00,54.3,29.3,29.88,WNW,292,1.3,4.9,38,0.00,,---,0.00,VWS V14.01,2013-03-02 12:55:00,
2013-03-02 07:56:00,42.4,30.4,29.85,SSW,202,0.0,0.0,62,0.00,,---,0.00,VWS V14.01,2013-03-02 12:56:00,
2013-03-02 08:00:00,55.4,29.6,29.88,WNW,292,1.1,2.9,37,0.00,,---,0.00,VWS V14.01,2013-03-02 13:00:00,
2013-03-02 08:01:00,45.3,33.5,29.85,SSW,202,0.0,0.0,63,0.00,,---,0.00,VWS V14.01,2013-03-02 13:01:00,
2013-03-02 08:05:00,56.1,30.2,29.88,West,270,4.3,4.3,37,0.00,,---,0.00,VWS V14.01,2013-03-02 13:05:00,
2013-03-02 08:06:00,44.1,31.5,29.85,WSW,248,0.0,0.0,61,0.00,,---,0.00,VWS V14.01,2013-03-02 13:06:00,
2013-03-02 08:10:00,55.9,29.4,29.88,East,90,1.6,4.9,36,0.00,,---,0.00,VWS V14.01,2013-03-02 13:10:00,
2013-03-02 08:11:00,44.2,31.2,29.85,WNW,292,0.0,0.0,60,0.00,,---,0.00,VWS V14.01,2013-03-02 13:11:00,
2013-03-02 08:15:00,57.0,30.4,29.88,West,270,0.0,4.3,36,0.00,,---,0.00,VWS V14.01,2013-03-02 13:15:00,
2013-03-02 08:16:00,47.3,33.7,29.88,NNW,338,0.0,0.0,59,0.00,,---,0.00,VWS V14.01,2013-03-02 13:16:00,
2013-03-02 08:20:00,55.8,28.5,29.88,SSW,202,3.6,4.3,35,0.00,,---,0.00,VWS V14.01,2013-03-02 13:20:00,
2013-03-02 08:21:00,49.5,34.9,29.88,West,270,0.0,0.0,57,0.00,,---,0.00,VWS V14.01,2013-03-02 13:21:00,
2013-03-02 08:25:00,56.3,29.0,29.88,NW,315,2.5,4.0,35,0.00,,---,0.00,VWS V14.01,2013-03-02 13:25:00,
2013-03-02 08:26:00,48.2,31.4,29.88,NW,315,0.0,0.0,52,0.00,,---,0.00,VWS V14.01,2013-03-02 13:26:00,
2013-03-02 08:30:00,57.4,29.3,29.88,NNW,338,3.1,6.0,34,0.00,,---,0.00,VWS V14.01,2013-03-02 13:30:00,
2013-03-02 08:31:00,50.9,32.4,29.88,West,270,0.0,0.0,49,0.00,,---,0.00,VWS V14.01,2013-03-02 13:31:00,
2013-03-02 08:35:00,58.5,30.2,29.88,NNW,338,1.6,3.6,34,0.00,,---,0.00,VWS V14.01,2013-03-02 13:35:00,
2013-03-02 08:36:00,51.1,32.1,29.88,WNW,292,0.0,0.0,48,0.00,,---,0.00,VWS V14.01,2013-03-02 13:36:00,
2013-03-02 08:40:00,58.6,29.6,29.88,NW,315,5.4,5.8,33,0.00,,---,0.00,VWS V14.01,2013-03-02 13:40:00,
2013-03-02 08:41:00,51.8,31.7,29.88,NNW,338,1.6,3.6,46,0.00,,---,0.00,VWS V14.01,2013-03-02 13:41:00,
2013-03-02 08:45:00,59.4,29.5,29.88,West,270,3.8,6.0,32,0.00,,---,0.00,VWS V14.01,2013-03-02 13:45:00,
2013-03-02 08:46:00,52.5,30.7,29.88,West,270,0.0,1.6,43,0.00,,---,0.00,VWS V14.01,2013-03-02 13:46:00,
2013-03-02 08:50:00,60.3,29.5,29.88,NW,315,0.0,5.4,31,0.00,,---,0.00,VWS V14.01,2013-03-02 13:50:00,
2013-03-02 08:51:00,52.9,28.6,29.88,West,270,4.9,4.9,39,0.00,,---,0.00,VWS V14.01,2013-03-02 13:51:00,
2013-03-02 08:55:00,59.9,28.4,29.88,West,270,0.0,6.3,30,0.00,,---,0.00,VWS V14.01,2013-03-02 13:55:00,
2013-03-02 08:56:00,54.3,29.3,29.88,WNW,292,1.3,4.9,38,0.00,,---,0.00,VWS V14.01,2013-03-02 13:56:00,
2013-03-02 09:00:00,61.2,28.7,29.88,East,90,6.0,6.0,29,0.00,,---,0.00,VWS V14.01,2013-03-02 14:00:00,
2013-03-02 09:01:00,55.4,29.6,29.88,WNW,292,1.1,2.9,37,0.00,,---,0.00,VWS V14.01,2013-03-02 14:01:00,
2013-03-02 09:05:00,60.8,28.4,29.88,NNE,22,3.4,6.0,29,0.00,,---,0.00,VWS V14.01,2013-03-02 14:05:00,
2013-03-02 09:06:00,56.1,30.2,29.88,West,270,4.3,4.3,37,0.00,,---,0.00,VWS V14.01,2013-03-02 14:06:00,
2013-03-02 09:10:00,61.5,29.0,29.88,NW,315,2.0,6.9,29,0.00,,---,0.00,VWS V14.01,2013-03-02 14:10:00,
2013-03-02 09:11:00,55.9,29.4,29.88,East,90,1.6,4.9,36,0.00,,---,0.00,VWS V14.01,2013-03-02 14:11:00,
2013-03-02 09:15:00,60.4,28.1,29.88,SW,225,4.0,7.6,29,0.00,,---,0.00,VWS V14.01,2013-03-02 14:15:00,
2013-03-02 09:16:00,57.0,30.4,29.88,West,270,0.0,4.3,36,0.00,,---,0.00,VWS V14.01,2013-03-02 14:16:00,
2013-03-02 09:20:00,61.0,27.7,29.88,NNE,22,0.0,6.3,28,0.00,,---,0.00,VWS V14.01,2013-03-02 14:20:00,
2013-03-02 09:21:00,55.8,28.5,29.88,SSW,202,3.6,4.3,35,0.00,,---,0.00,VWS V14.01,2013-03-02 14:21:00,
2013-03-02 09:25:00,60.6,28.2,29.88,West,270,2.7,4.9,29,0.00,,---,0.00,VWS V14.01,2013-03-02 14:25:00,
2013-03-02 09:26:00,56.3,29.0,29.88,NW,315,2.5,4.0,35,0.00,,---,0.00,VWS V14.01,2013-03-02 14:26:00,
2013-03-02 09:30:00,61.3,28.0,29.88,NW,315,5.4,7.6,28,0.00,,---,0.00,VWS V14.01,2013-03-02 14:30:00,
2013-03-02 09:31:00,57.4,29.3,29.88,NNW,338,3.1,6.0,34,0.00,,---,0.00,VWS V14.01,2013-03-02 14:31:00,
2013-03-02 09:35:00,61.7,28.3,29.88,South,180,2.9,6.3,28,0.00,,---,0.00,VWS V14.01,2013-03-02 14:35:00,
2013-03-02 09:36:00,58.5,30.2,29.88,NNW,338,1.6,3.6,34,0.00,,---,0.00,VWS V14.01,2013-03-02 14:36:00,
2013-03-02 09:40:00,59.7,26.6,29.88,WNW,292,3.8,7.6,28,0.00,,---,0.00,VWS V14.01,2013-03-02 14:40:00,
2013-03-02 09:41:00,58.6,29.6,29.88,NW,315,5.4,5.8,33,0.00,,---,0.00,VWS V14.01,2013-03-02 14:41:00,
2013-03-02 09:45:00,60.6,27.4,29.88,NNW,338,2.0,4.7,28,0.00,,---,0.00,VWS V14.01,2013-03-02 14:45:00,
2013-03-02 09:46:00,59.4,29.5,29.88,West,270,3.8,6.0,32,0.00,,---,0.00,VWS V14.01,2013-03-02 14:46:00,
2013-03-02 09:50:00,58.8,25.8,29.88,WNW,292,3.6,6.3,28,0.00,,---,0.00,VWS V14.01,2013-03-02 14:50:00,
2013-03-02 09:51:00,60.3,29.5,29.88,NW,315,0.0,5.4,31,0.00,,---,0.00,VWS V14.01,2013-03-02 14:51:00,
2013-03-02 09:55:00,60.4,27.2,29.88,WNW,292,2.0,5.4,28,0.00,,---,0.00,VWS V14.01,2013-03-02 14:55:00,
2013-03-02 09:56:00,59.9,28.4,29.88,West,270,0.0,6.3,30,0.00,,---,0.00,VWS V14.01,2013-03-02 14:56:00,
2013-03-02 10:00:00,62.8,28.3,29.88,ENE,68,7.4,7.4,27,0.00,,---,0.00,VWS V14.01,2013-03-02 15:00:00,
2013-03-02 10:01:00,61.2,28.7,29.88,East,90,6.0,6.0,29,0.00,,---,0.00,VWS V14.01,2013-03-02 15:01:00,
2013-03-02 10:05:00,62.8,28.3,29.88,NE,45,3.1,7.4,27,0.00,,---,0.00,VWS V14.01,2013-03-02 15:05:00,
2013-03-02 10:06:00,60.8,28.4,29.88,NNE,22,3.4,6.0,29,0.00,,---,0.00,VWS V14.01,2013-03-02 15:06:00,
2013-03-02 10:10:00,63.9,29.3,29.88,South,180,5.8,6.3,27,0.00,,---,0.00,VWS V14.01,2013-03-02 15:10:00,
2013-03-02 10:11:00,61.5,29.0,29.88,NW,315,2.0,6.9,29,0.00,,---,0.00,VWS V14.01,2013-03-02 15:11:00,
2013-03-02 10:15:00,63.1,27.7,29.88,NNW,338,3.1,7.6,26,0.00,,---,0.00,VWS V14.01,2013-03-02 15:15:00,
2013-03-02 10:16:00,60.3,27.9,29.88,WNW,292,2.5,4.0,29,0.00,,---,0.00,VWS V14.01,2013-03-02 15:16:00,
2013-03-02 10:20:00,64.6,29.0,29.88,WNW,292,2.7,10.3,26,0.00,,---,0.00,VWS V14.01,2013-03-02 15:20:00,
2013-03-02 10:21:00,61.3,28.8,29.88,WSW,248,2.5,3.6,29,0.00,,---,0.00,VWS V14.01,2013-03-02 15:21:00,
2013-03-02 10:25:00,64.8,29.1,29.88,WNW,292,3.4,6.3,26,0.00,,---,0.00,VWS V14.01,2013-03-02 15:25:00,
2013-03-02 10:26:00,60.6,28.2,29.88,NW,315,4.5,4.5,29,0.00,,---,0.00,VWS V14.01,2013-03-02 15:26:00,
2013-03-02 10:30:00,64.9,28.3,29.88,NW,315,3.6,7.6,25,0.00,,---,0.00,VWS V14.01,2013-03-02 15:30:00,
2013-03-02 10:31:00,61.2,27.8,29.88,NNE,22,2.9,5.4,28,0.00,,---,0.00,VWS V14.01,2013-03-02 15:31:00,
2013-03-02 10:35:00,64.4,27.8,29.88,NW,315,5.6,7.6,25,0.00,,---,0.00,VWS V14.01,2013-03-02 15:35:00,
2013-03-02 10:36:00,61.0,27.7,29.88,WSW,248,0.9,2.9,28,0.00,,---,0.00,VWS V14.01,2013-03-02 15:36:00,
2013-03-02 10:40:00,65.7,28.9,29.88,WSW,248,4.0,7.8,25,0.00,,---,0.00,VWS V14.01,2013-03-02 15:40:00,
2013-03-02 10:41:00,59.7,26.6,29.88,WNW,292,2.0,3.8,28,0.00,,---,0.00,VWS V14.01,2013-03-02 15:41:00,
2013-03-02 10:45:00,64.0,27.5,29.88,West,270,10.5,10.5,25,0.00,,---,0.00,VWS V14.01,2013-03-02 15:45:00,
2013-03-02 10:46:00,61.0,27.7,29.88,West,270,2.0,2.0,28,0.00,,---,0.00,VWS V14.01,2013-03-02 15:46:00,
2013-03-02 10:50:00,65.1,28.5,29.88,West,270,3.6,10.5,25,0.00,,---,0.00,VWS V14.01,2013-03-02 15:50:00,
2013-03-02 10:51:00,58.8,25.8,29.88,NW,315,1.3,3.6,28,0.00,,---,0.00,VWS V14.01,2013-03-02 15:51:00,
2013-03-02 10:55:00,64.2,26.7,29.88,NW,315,6.0,9.6,24,0.00,,---,0.00,VWS V14.01,2013-03-02 15:55:00,
2013-03-02 10:56:00,60.4,27.2,29.88,WNW,292,3.1,3.1,28,0.00,,---,0.00,VWS V14.01,2013-03-02 15:56:00,
2013-03-02 11:00:00,65.3,26.6,29.85,WNW,292,9.6,9.6,23,0.00,,---,0.00,VWS V14.01,2013-03-02 16:00:00,
2013-03-02 11:01:00,62.8,28.3,29.88,SW,225,1.3,7.4,27,0.00,,---,0.00,VWS V14.01,2013-03-02 16:01:00,
2013-03-02 11:05:00,64.0,26.5,29.85,West,270,10.1,10.1,24,0.00,,---,0.00,VWS V14.01,2013-03-02 16:05:00,
2013-03-02 11:06:00,62.8,28.3,29.88,West,270,4.0,4.0,27,0.00,,---,0.00,VWS V14.01,2013-03-02 16:06:00,
2013-03-02 11:10:00,65.5,26.7,29.85,WSW,248,3.1,10.1,23,0.00,,---,0.00,VWS V14.01,2013-03-02 16:10:00,
2013-03-02 11:11:00,63.9,29.3,29.88,NW,315,5.8,5.8,27,0.00,,---,0.00,VWS V14.01,2013-03-02 16:11:00,
2013-03-02 11:15:00,66.2,27.3,29.85,West,270,6.7,6.7,23,0.00,,---,0.00,VWS V14.01,2013-03-02 16:15:00,
2013-03-02 11:16:00,63.7,28.2,29.88,SW,225,6.3,6.3,26,0.00,,---,0.00,VWS V14.01,2013-03-02 16:16:00,
2013-03-02 11:20:00,64.2,25.7,29.85,West,270,5.8,9.2,23,0.00,,---,0.00,VWS V14.01,2013-03-02 16:20:00,
2013-03-02 11:21:00,64.2,28.6,29.88,NNE,22,4.3,4.3,26,0.00,,---,0.00,VWS V14.01,2013-03-02 16:21:00,
2013-03-02 11:25:00,64.4,25.8,29.85,NNW,338,7.2,9.2,23,0.00,,---,0.00,VWS V14.01,2013-03-02 16:25:00,
2013-03-02 11:26:00,64.8,29.1,29.88,WNW,292,3.6,3.6,26,0.00,,---,0.00,VWS V14.01,2013-03-02 16:26:00,
2013-03-02 11:30:00,64.2,25.7,29.85,WNW,292,6.0,7.6,23,0.00,,---,0.00,VWS V14.01,2013-03-02 16:30:00,
2013-03-02 11:31:00,64.9,28.3,29.88,West,270,5.6,5.6,25,0.00,,---,0.00,VWS V14.01,2013-03-02 16:31:00,
2013-03-02 11:35:00,64.8,26.1,29.85,WSW,248,2.7,9.6,23,0.00,,---,0.00,VWS V14.01,2013-03-02 16:35:00,
2013-03-02 11:36:00,64.4,27.8,29.88,SW,225,4.3,5.6,25,0.00,,---,0.00,VWS V14.01,2013-03-02 16:36:00,
2013-03-02 11:40:00,64.2,23.5,29.85,NW,315,6.0,7.6,21,0.00,,---,0.00,VWS V14.01,2013-03-02 16:40:00,
2013-03-02 11:41:00,65.7,28.9,29.88,NW,315,2.0,4.0,25,0.00,,---,0.00,VWS V14.01,2013-03-02 16:41:00,
2013-03-02 11:45:00,63.9,23.2,29.85,NW,315,4.9,12.1,21,0.00,,---,0.00,VWS V14.01,2013-03-02 16:45:00,
2013-03-02 11:46:00,63.1,26.8,29.88,SW,225,4.0,10.5,25,0.00,,---,0.00,VWS V14.01,2013-03-02 16:46:00,
2013-03-02 11:50:00,63.5,22.9,29.85,SW,225,5.6,8.7,21,0.00,,---,0.00,VWS V14.01,2013-03-02 16:50:00,
2013-03-02 11:51:00,64.2,27.7,29.88,WSW,248,4.5,6.0,25,0.00,,---,0.00,VWS V14.01,2013-03-02 16:51:00,
2013-03-02 11:55:00,63.9,23.2,29.85,NNE,22,3.8,9.8,21,0.00,,---,0.00,VWS V14.01,2013-03-02 16:55:00,
2013-03-02 11:56:00,64.2,26.7,29.88,WNW,292,5.8,6.3,24,0.00,,---,0.00,VWS V14.01,2013-03-02 16:56:00,
2013-03-02 12:00:00,63.3,22.8,29.85,WSW,248,4.9,8.5,21,0.00,,---,0.00,VWS V14.01,2013-03-02 17:00:00,
2013-03-02 12:01:00,64.8,26.1,29.85,NNW,338,3.1,9.6,23,0.00,,---,0.00,VWS V14.01,2013-03-02 17:01:00,
2013-03-02 12:05:00,63.1,22.6,29.85,WSW,248,2.9,7.6,21,0.00,,---,0.00,VWS V14.01,2013-03-02 17:05:00,
2013-03-02 12:06:00,63.3,25.9,29.85,WNW,292,2.7,10.1,24,0.00,,---,0.00,VWS V14.01,2013-03-02 17:06:00,
2013-03-02 12:10:00,62.6,22.1,29.85,WNW,292,5.6,9.8,21,0.00,,---,0.00,VWS V14.01,2013-03-02 17:10:00,
2013-03-02 12:11:00,65.5,26.7,29.85,West,270,4.9,4.9,23,0.00,,---,0.00,VWS V14.01,2013-03-02 17:11:00,
2013-03-02 12:15:00,61.9,21.5,29.85,South,180,3.8,8.5,21,0.00,,---,0.00,VWS V14.01,2013-03-02 17:15:00,
2013-03-02 12:16:00,66.0,27.2,29.85,SSW,202,6.3,6.7,23,0.00,,---,0.00,VWS V14.01,2013-03-02 17:16:00,
2013-03-02 12:20:00,62.4,22.0,29.85,West,270,1.6,9.0,21,0.00,,---,0.00,VWS V14.01,2013-03-02 17:20:00,
2013-03-02 12:21:00,63.9,23.2,29.85,West,270,6.3,9.2,21,0.00,,---,0.00,VWS V14.01,2013-03-02 17:21:00,
2013-03-02 12:25:00,62.2,21.8,29.85,ESE,112,5.6,9.8,21,0.00,,---,0.00,VWS V14.01,2013-03-02 17:25:00,
2013-03-02 12:26:00,64.4,25.8,29.85,West,270,2.0,7.2,23,0.00,,---,0.00,VWS V14.01,2013-03-02 17:26:00,
2013-03-02 12:30:00,63.5,22.9,29.82,SW,225,6.9,7.6,21,0.00,,---,0.00,VWS V14.01,2013-03-02 17:30:00,
2013-03-02 12:31:00,64.4,25.8,29.85,West,270,3.8,6.0,23,0.00,,---,0.00,VWS V14.01,2013-03-02 17:31:00,
2013-03-02 12:35:00,61.9,21.5,29.82,WSW,248,0.9,7.8,21,0.00,,---,0.00,VWS V14.01,2013-03-02 17:35:00,
2013-03-02 12:36:00,65.5,26.7,29.85,WSW,248,2.9,2.9,23,0.00,,---,0.00,VWS V14.01,2013-03-02 17:36:00,
2013-03-02 12:40:00,59.4,20.5,29.82,WNW,292,5.8,7.8,22,0.00,,---,0.00,VWS V14.01,2013-03-02 17:40:00,
2013-03-02 12:41:00,64.2,23.5,29.85,WNW,292,5.8,6.3,21,0.00,,---,0.00,VWS V14.01,2013-03-02 17:41:00,
2013-03-02 12:45:00,58.5,19.8,29.85,NW,315,4.7,8.7,22,0.00,,---,0.00,VWS V14.01,2013-03-02 17:45:00,
2013-03-02 12:46:00,64.0,23.3,29.85,WNW,292,2.7,4.9,21,0.00,,---,0.00,VWS V14.01,2013-03-02 17:46:00,
2013-03-02 12:50:00,58.1,19.5,29.85,ESE,112,5.4,10.1,22,0.00,,---,0.00,VWS V14.01,2013-03-02 17:50:00,
2013-03-02 12:51:00,63.7,23.0,29.85,WSW,248,1.6,5.6,21,0.00,,---,0.00,VWS V14.01,2013-03-02 17:51:00,
2013-03-02 12:55:00,57.0,18.6,29.85,WNW,292,6.5,11.9,22,0.00,,---,0.00,VWS V14.01,2013-03-02 17:55:00,
2013-03-02 12:56:00,63.9,23.2,29.85,North,0,3.4,4.3,21,0.00,,---,0.00,VWS V14.01,2013-03-02 17:56:00,
2013-03-02 13:00:00,57.0,21.6,29.82,NW,315,4.3,7.8,25,0.00,,---,0.00,VWS V14.01,2013-03-02 18:00:00,
2013-03-02 13:01:00,63.0,22.5,29.85,WNW,292,4.7,6.3,21,0.00,,---,0.00,VWS V14.01,2013-03-02 18:01:00,
2013-03-02 13:05:00,56.3,21.0,29.82,West,270,3.8,8.5,25,0.00,,---,0.00,VWS V14.01,2013-03-02 18:05:00,
2013-03-02 13:06:00,63.1,22.6,29.85,West,270,3.1,3.1,21,0.00,,---,0.00,VWS V14.01,2013-03-02 18:06:00,
2013-03-02 13:10:00,56.8,21.4,29.82,NNW,338,2.0,6.5,25,0.00,,---,0.00,VWS V14.01,2013-03-02 18:10:00,
2013-03-02 13:11:00,62.6,22.1,29.85,SW,225,5.8,6.5,21,0.00,,---,0.00,VWS V14.01,2013-03-02 18:11:00,
2013-03-02 13:15:00,57.2,21.7,29.82,WNW,292,2.9,7.2,25,0.00,,---,0.00,VWS V14.01,2013-03-02 18:15:00,
2013-03-02 13:16:00,61.9,21.5,29.85,West,270,2.5,9.0,21,0.00,,---,0.00,VWS V14.01,2013-03-02 18:16:00,
2013-03-02 13:20:00,56.7,21.3,29.82,SW,225,3.8,9.6,25,0.00,,---,0.00,VWS V14.01,2013-03-02 18:20:00,
2013-03-02 13:21:00,62.4,22.0,29.85,SSW,202,2.7,4.0,21,0.00,,---,0.00,VWS V14.01,2013-03-02 18:21:00,
2013-03-02 13:25:00,56.1,20.8,29.82,WNW,292,4.3,10.3,25,0.00,,---,0.00,VWS V14.01,2013-03-02 18:25:00,
2013-03-02 13:26:00,62.2,21.9,29.85,West,270,4.0,5.6,21,0.00,,---,0.00,VWS V14.01,2013-03-02 18:26:00,
2013-03-02 13:30:00,56.5,21.1,29.82,NW,315,9.4,14.8,25,0.00,,---,0.00,VWS V14.01,2013-03-02 18:30:00,
2013-03-02 13:31:00,63.0,22.5,29.82,West,270,2.7,6.9,21,0.00,,---,0.00,VWS V14.01,2013-03-02 18:31:00,
2013-03-02 13:35:00,56.8,21.4,29.82,West,270,2.7,9.4,25,0.00,,---,0.00,VWS V14.01,2013-03-02 18:35:00,
2013-03-02 13:36:00,61.9,21.5,29.82,WNW,292,2.5,4.9,21,0.00,,---,0.00,VWS V14.01,2013-03-02 18:36:00,
2013-03-02 13:40:00,56.3,21.0,29.82,North,0,2.9,7.4,25,0.00,,---,0.00,VWS V14.01,2013-03-02 18:40:00,
2013-03-02 13:41:00,59.4,20.5,29.82,WSW,248,8.7,8.7,22,0.00,,---,0.00,VWS V14.01,2013-03-02 18:41:00,
2013-03-02 13:45:00,55.9,20.6,29.82,WNW,292,0.9,10.7,25,0.00,,---,0.00,VWS V14.01,2013-03-02 18:45:00,
2013-03-02 13:46:00,58.6,19.9,29.85,West,270,2.0,4.7,22,0.00,,---,0.00,VWS V14.01,2013-03-02 18:46:00,
2013-03-02 13:50:00,56.1,20.8,29.82,WNW,292,3.8,10.7,25,0.00,,---,0.00,VWS V14.01,2013-03-02 18:50:00,
2013-03-02 13:51:00,58.1,19.5,29.85,West,270,4.0,5.4,22,0.00,,---,0.00,VWS V14.01,2013-03-02 18:51:00,
2013-03-02 13:55:00,56.1,20.8,29.82,WNW,292,0.0,5.8,25,0.00,,---,0.00,VWS V14.01,2013-03-02 18:55:00,
2013-03-02 13:56:00,57.0,18.6,29.85,WNW,292,3.8,6.5,22,0.00,,---,0.00,VWS V14.01,2013-03-02 18:56:00,
2013-03-02 14:00:00,55.8,20.5,29.82,NNW,338,8.5,8.5,25,0.00,,---,0.00,VWS V14.01,2013-03-02 19:00:00,
2013-03-02 14:01:00,57.0,21.6,29.82,South,180,6.0,6.0,25,0.00,,---,0.00,VWS V14.01,2013-03-02 19:01:00,
2013-03-02 14:05:00,56.3,21.9,29.82,WNW,292,4.9,8.5,26,0.00,,---,0.00,VWS V14.01,2013-03-02 19:05:00,
2013-03-02 14:06:00,56.3,21.0,29.82,WSW,248,3.4,3.8,25,0.00,,---,0.00,VWS V14.01,2013-03-02 19:06:00,
2013-03-02 14:10:00,55.4,21.1,29.82,NNE,22,3.8,11.9,26,0.00,,---,0.00,VWS V14.01,2013-03-02 19:10:00,
2013-03-02 14:11:00,56.8,21.4,29.82,West,270,3.6,4.9,25,0.00,,---,0.00,VWS V14.01,2013-03-02 19:11:00,
2013-03-02 14:15:00,56.3,21.9,29.82,WNW,292,4.0,8.1,26,0.00,,---,0.00,VWS V14.01,2013-03-02 19:15:00,
2013-03-02 14:16:00,57.0,21.6,29.82,West,270,7.2,9.6,25,0.00,,---,0.00,VWS V14.01,2013-03-02 19:16:00,
2013-03-02 14:20:00,56.3,21.9,29.82,West,270,2.5,7.8,26,0.00,,---,0.00,VWS V14.01,2013-03-02 19:20:00,
2013-03-02 14:22:00,56.5,21.1,29.82,WSW,248,4.3,6.5,25,0.00,,---,0.00,VWS V14.01,2013-03-02 19:22:00,
2013-03-02 14:25:00,56.3,21.9,29.82,WSW,248,6.3,7.6,26,0.00,,---,0.00,VWS V14.01,2013-03-02 19:25:00,
2013-03-02 14:27:00,56.3,21.0,29.82,WSW,248,2.5,6.5,25,0.00,,---,0.00,VWS V14.01,2013-03-02 19:27:00,
2013-03-02 14:30:00,56.3,21.9,29.82,South,180,7.2,12.5,26,0.00,,---,0.00,VWS V14.01,2013-03-02 19:30:00,
2013-03-02 14:32:00,56.5,21.1,29.82,SW,225,6.3,9.4,25,0.00,,---,0.00,VWS V14.01,2013-03-02 19:32:00,
2013-03-02 14:35:00,57.2,22.6,29.82,ESE,112,2.5,7.2,26,0.00,,---,0.00,VWS V14.01,2013-03-02 19:35:00,
2013-03-02 14:37:00,56.7,21.3,29.82,ESE,112,7.2,7.4,25,0.00,,---,0.00,VWS V14.01,2013-03-02 19:37:00,
2013-03-02 14:40:00,56.3,21.9,29.82,NW,315,5.4,6.5,26,0.00,,---,0.00,VWS V14.01,2013-03-02 19:40:00,
2013-03-02 14:42:00,55.9,20.6,29.82,West,270,5.8,5.8,25,0.00,,---,0.00,VWS V14.01,2013-03-02 19:42:00,
2013-03-02 14:45:00,55.6,21.3,29.82,NNW,338,3.4,8.1,26,0.00,,---,0.00,VWS V14.01,2013-03-02 19:45:00,
2013-03-02 14:47:00,55.9,20.6,29.82,SW,225,10.7,10.7,25,0.00,,---,0.00,VWS V14.01,2013-03-02 19:47:00,
2013-03-02 14:50:00,54.9,20.6,29.82,West,270,5.6,7.8,26,0.00,,---,0.00,VWS V14.01,2013-03-02 19:50:00,
2013-03-02 14:52:00,55.9,20.6,29.82,NNW,338,3.8,4.0,25,0.00,,---,0.00,VWS V14.01,2013-03-02 19:52:00,
2013-03-02 14:55:00,54.5,20.3,29.82,West,270,1.6,8.5,26,0.00,,---,0.00,VWS V14.01,2013-03-02 19:55:00,
2013-03-02 14:57:00,56.3,21.0,29.82,West,270,4.3,4.3,25,0.00,,---,0.00,VWS V14.01,2013-03-02 19:57:00,
2013-03-02 15:00:00,54.0,20.8,29.80,West,270,3.6,7.4,27,0.00,,---,0.00,VWS V14.01,2013-03-02 20:00:00,
2013-03-02 15:02:00,55.9,21.6,29.82,WNW,292,5.8,8.5,26,0.00,,---,0.00,VWS V14.01,2013-03-02 20:02:00,
2013-03-02 15:05:00,53.8,20.6,29.80,WNW,292,2.9,10.3,27,0.00,,---,0.00,VWS V14.01,2013-03-02 20:05:00,
2013-03-02 15:07:00,56.3,21.9,29.82,NW,315,5.6,6.3,26,0.00,,---,0.00,VWS V14.01,2013-03-02 20:07:00,
2013-03-02 15:10:00,54.1,20.9,29.80,West,270,4.9,8.5,27,0.00,,---,0.00,VWS V14.01,2013-03-02 20:10:00,
2013-03-02 15:12:00,55.6,21.3,29.82,WNW,292,5.4,6.0,26,0.00,,---,0.00,VWS V14.01,2013-03-02 20:12:00,
2013-03-02 15:15:00,54.0,20.8,29.82,WNW,292,4.9,11.0,27,0.00,,---,0.00,VWS V14.01,2013-03-02 20:15:00,
2013-03-02 15:17:00,56.3,21.9,29.82,NNW,338,1.1,4.3,26,0.00,,---,0.00,VWS V14.01,2013-03-02 20:17:00,
2013-03-02 15:20:00,53.8,20.6,29.82,WNW,292,7.6,7.8,27,0.00,,---,0.00,VWS V14.01,2013-03-02 20:20:00,
2013-03-02 15:22:00,56.3,21.9,29.82,NNW,338,5.8,6.3,26,0.00,,---,0.00,VWS V14.01,2013-03-02 20:22:00,
2013-03-02 15:25:00,53.4,20.3,29.82,NW,315,4.3,9.4,27,0.00,,---,0.00,VWS V14.01,2013-03-02 20:25:00,
2013-03-02 15:27:00,56.1,21.7,29.82,West,270,5.4,8.5,26,0.00,,---,0.00,VWS V14.01,2013-03-02 20:27:00,
2013-03-02 15:30:00,53.2,20.1,29.82,West,270,3.8,6.0,27,0.00,,---,0.00,VWS V14.01,2013-03-02 20:30:00,
2013-03-02 15:32:00,56.1,21.7,29.82,WSW,248,3.6,7.2,26,0.00,,---,0.00,VWS V14.01,2013-03-02 20:32:00,
2013-03-02 15:35:00,53.2,20.1,29.82,SW,225,5.8,11.0,27,0.00,,---,0.00,VWS V14.01,2013-03-02 20:35:00,
2013-03-02 15:37:00,57.0,22.5,29.82,West,270,2.5,3.4,26,0.00,,---,0.00,VWS V14.01,2013-03-02 20:37:00,
2013-03-02 15:40:00,53.4,21.1,29.82,West,270,5.6,11.0,28,0.00,,---,0.00,VWS V14.01,2013-03-02 20:40:00,
2013-03-02 15:42:00,55.6,21.3,29.82,WNW,292,4.7,5.4,26,0.00,,---,0.00,VWS V14.01,2013-03-02 20:42:00,
2013-03-02 15:45:00,53.2,21.0,29.82,WSW,248,4.3,10.5,28,0.00,,---,0.00,VWS V14.01,2013-03-02 20:45:00,
2013-03-02 15:47:00,55.4,21.1,29.82,NNW,338,4.0,6.0,26,0.00,,---,0.00,VWS V14.01,2013-03-02 20:47:00,
2013-03-02 15:50:00,53.1,20.8,29.82,SW,225,3.8,4.9,28,0.00,,---,0.00,VWS V14.01,2013-03-02 20:50:00,
2013-03-02 15:52:00,54.5,20.3,29.82,NNW,338,3.6,6.5,26,0.00,,---,0.00,VWS V14.01,2013-03-02 20:52:00,
2013-03-02 15:55:00,52.2,20.1,29.82,WNW,292,1.3,8.5,28,0.00,,---,0.00,VWS V14.01,2013-03-02 20:55:00,
2013-03-02 15:57:00,54.3,20.2,29.82,North,0,3.4,6.3,26,0.00,,---,0.00,VWS V14.01,2013-03-02 20:57:00,
2013-03-02 16:00:00,51.6,20.4,29.82,WNW,292,2.7,7.8,29,0.00,,---,0.00,VWS V14.01,2013-03-02 21:00:00,
2013-03-02 16:02:00,53.8,20.6,29.79,WNW,292,5.8,10.3,27,0.00,,---,0.00,VWS V14.01,2013-03-02 21:02:00,
2013-03-02 16:05:00,51.6,20.4,29.82,West,270,4.0,4.9,29,0.00,,---,0.00,VWS V14.01,2013-03-02 21:05:00,
2013-03-02 16:07:00,54.0,20.8,29.79,NW,315,6.5,8.5,27,0.00,,---,0.00,VWS V14.01,2013-03-02 21:07:00,
2013-03-02 16:10:00,51.6,20.4,29.82,NNE,22,6.0,6.0,29,0.00,,---,0.00,VWS V14.01,2013-03-02 21:10:00,
2013-03-02 16:12:00,54.3,21.1,29.79,NNW,338,2.9,4.9,27,0.00,,---,0.00,VWS V14.01,2013-03-02 21:12:00,
2013-03-02 16:15:00,51.6,21.2,29.80,WNW,292,3.8,9.4,30,0.00,,---,0.00,VWS V14.01,2013-03-02 21:15:00,
2013-03-02 16:17:00,53.8,20.6,29.82,NNW,338,2.5,4.9,27,0.00,,---,0.00,VWS V14.01,2013-03-02 21:17:00,
2013-03-02 16:20:00,51.3,20.9,29.80,NNE,22,2.0,5.8,30,0.00,,---,0.00,VWS V14.01,2013-03-02 21:20:00,
2013-03-02 16:22:00,53.8,20.6,29.82,West,270,2.7,9.4,27,0.00,,---,0.00,VWS V14.01,2013-03-02 21:22:00,
2013-03-02 16:25:00,51.1,20.8,29.80,West,270,1.6,6.0,30,0.00,,---,0.00,VWS V14.01,2013-03-02 21:25:00,
2013-03-02 16:27:00,53.4,20.3,29.82,West,270,2.2,5.4,27,0.00,,---,0.00,VWS V14.01,2013-03-02 21:27:00,
2013-03-02 16:30:00,50.9,21.4,29.82,North,0,2.9,5.4,31,0.00,,---,0.00,VWS V14.01,2013-03-02 21:30:00,
2013-03-02 16:32:00,53.2,21.0,29.82,NNE,22,1.1,4.3,28,0.00,,---,0.00,VWS V14.01,2013-03-02 21:32:00,
2013-03-02 16:35:00,51.1,21.5,29.82,WSW,248,1.3,5.8,31,0.00,,---,0.00,VWS V14.01,2013-03-02 21:35:00,
2013-03-02 16:37:00,53.4,20.3,29.82,West,270,3.4,5.8,27,0.00,,---,0.00,VWS V14.01,2013-03-02 21:37:00,
2013-03-02 16:40:00,50.9,22.1,29.82,WNW,292,3.6,7.6,32,0.00,,---,0.00,VWS V14.01,2013-03-02 21:40:00,
2013-03-02 16:42:00,53.4,20.3,29.82,West,270,4.0,10.5,27,0.00,,---,0.00,VWS V14.01,2013-03-02 21:42:00,
2013-03-02 16:45:00,50.7,22.0,29.82,SW,225,1.3,4.9,32,0.00,,---,0.00,VWS V14.01,2013-03-02 21:45:00,
2013-03-02 16:47:00,53.1,20.8,29.82,SSE,158,3.8,4.9,28,0.00,,---,0.00,VWS V14.01,2013-03-02 21:47:00,
2013-03-02 16:50:00,50.7,22.7,29.82,NW,315,2.5,3.6,33,0.00,,---,0.00,VWS V14.01,2013-03-02 21:50:00,
2013-03-02 16:52:00,52.7,20.5,29.82,WNW,292,5.4,8.5,28,0.00,,---,0.00,VWS V14.01,2013-03-02 21:52:00,
2013-03-02 16:55:00,50.7,23.4,29.82,NNE,22,5.4,7.4,34,0.00,,---,0.00,VWS V14.01,2013-03-02 21:55:00,
2013-03-02 16:57:00,52.0,19.9,29.82,North,0,3.6,3.6,28,0.00,,---,0.00,VWS V14.01,2013-03-02 21:57:00,
2013-03-02 17:00:00,50.5,23.2,29.82,West,270,2.5,5.6,34,0.00,,---,0.00,VWS V14.01,2013-03-02 22:00:00,
2013-03-02 17:02:00,51.6,20.4,29.82,West,270,2.5,3.8,29,0.00,,---,0.00,VWS V14.01,2013-03-02 22:02:00,
2013-03-02 17:05:00,50.4,23.1,29.82,WNW,292,2.7,4.3,34,0.00,,---,0.00,VWS V14.01,2013-03-02 22:05:00,
2013-03-02 17:07:00,51.6,20.4,29.82,WSW,248,6.0,6.0,29,0.00,,---,0.00,VWS V14.01,2013-03-02 22:07:00,
2013-03-02 17:10:00,50.2,22.9,29.82,WNW,292,1.3,3.1,34,0.00,,---,0.00,VWS V14.01,2013-03-02 22:10:00,
2013-03-02 17:12:00,51.6,20.4,29.82,WNW,292,5.8,7.2,29,0.00,,---,0.00,VWS V14.01,2013-03-02 22:12:00,
2013-03-02 17:15:00,49.8,22.6,29.82,WNW,292,2.0,4.9,34,0.00,,---,0.00,VWS V14.01,2013-03-02 22:15:00,
2013-03-02 17:17:00,51.6,21.2,29.79,NW,315,3.6,5.6,30,0.00,,---,0.00,VWS V14.01,2013-03-02 22:17:00,
2013-03-02 17:20:00,49.6,22.4,29.82,West,270,4.0,4.3,34,0.00,,---,0.00,VWS V14.01,2013-03-02 22:20:00,
2013-03-02 17:22:00,51.3,20.9,29.79,West,270,4.3,4.9,30,0.00,,---,0.00,VWS V14.01,2013-03-02 22:22:00,
2013-03-02 17:25:00,49.5,22.3,29.82,West,270,2.9,4.0,34,0.00,,---,0.00,VWS V14.01,2013-03-02 22:25:00,
2013-03-02 17:27:00,51.1,20.8,29.79,WSW,248,2.9,3.4,30,0.00,,---,0.00,VWS V14.01,2013-03-02 22:27:00,
2013-03-02 17:30:00,49.3,22.1,29.82,West,270,3.4,4.0,34,0.00,,---,0.00,VWS V14.01,2013-03-02 22:30:00,
2013-03-02 17:32:00,50.9,21.4,29.82,NW,315,4.9,5.8,31,0.00,,---,0.00,VWS V14.01,2013-03-02 22:32:00,
2013-03-02 17:35:00,48.9,21.8,29.82,West,270,0.9,4.3,34,0.00,,---,0.00,VWS V14.01,2013-03-02 22:35:00,
2013-03-02 17:37:00,51.1,21.5,29.82,West,270,2.7,4.0,31,0.00,,---,0.00,VWS V14.01,2013-03-02 22:37:00,
2013-03-02 17:40:00,48.6,21.5,29.82,West,270,0.0,2.5,34,0.00,,---,0.00,VWS V14.01,2013-03-02 22:40:00,
2013-03-02 17:42:00,50.9,22.1,29.82,WNW,292,2.0,3.8,32,0.00,,---,0.00,VWS V14.01,2013-03-02 22:42:00,
2013-03-02 17:45:00,48.6,21.5,29.82,West,270,2.2,2.9,34,0.00,,---,0.00,VWS V14.01,2013-03-02 22:45:00,
2013-03-02 17:47:00,50.7,22.0,29.82,NNW,338,2.9,2.9,32,0.00,,---,0.00,VWS V14.01,2013-03-02 22:47:00,
2013-03-02 17:50:00,48.2,21.2,29.82,ENE,68,0.0,5.8,34,0.00,,---,0.00,VWS V14.01,2013-03-02 22:50:00,
2013-03-02 17:52:00,50.5,22.5,29.82,NNW,338,1.6,4.9,33,0.00,,---,0.00,VWS V14.01,2013-03-02 22:52:00,
2013-03-02 17:55:00,48.6,22.2,29.82,NNW,338,3.6,6.9,35,0.00,,---,0.00,VWS V14.01,2013-03-02 22:55:00,
2013-03-02 17:57:00,50.7,23.4,29.82,WNW,292,1.1,5.6,34,0.00,,---,0.00,VWS V14.01,2013-03-02 22:57:00,
2013-03-02 18:00:00,48.2,21.9,29.82,WNW,292,2.9,3.6,35,0.00,,---,0.00,VWS V14.01,2013-03-02 23:00:00,
2013-03-02 18:02:00,50.5,23.2,29.82,WNW,292,2.5,3.6,34,0.00,,---,0.00,VWS V14.01,2013-03-02 23:02:00,
2013-03-02 18:05:00,47.8,21.5,29.82,West,270,0.0,2.9,35,0.00,,---,0.00,VWS V14.01,2013-03-02 23:05:00,
2013-03-02 18:07:00,50.2,22.9,29.82,WNW,292,1.6,2.7,34,0.00,,---,0.00,VWS V14.01,2013-03-02 23:07:00,
2013-03-02 18:10:00,47.8,22.2,29.82,West,270,3.4,3.4,36,0.00,,---,0.00,VWS V14.01,2013-03-02 23:10:00,
2013-03-02 18:12:00,50.0,22.8,29.82,NW,315,0.0,2.5,34,0.00,,---,0.00,VWS V14.01,2013-03-02 23:12:00,
2013-03-02 18:15:00,48.2,22.5,29.82,NNE,22,0.0,3.4,36,0.00,,---,0.00,VWS V14.01,2013-03-02 23:15:00,
2013-03-02 18:17:00,49.8,22.6,29.82,NW,315,0.0,2.9,34,0.00,,---,0.00,VWS V14.01,2013-03-02 23:17:00,
2013-03-02 18:20:00,48.4,22.7,29.82,WSW,248,0.0,0.0,36,0.00,,---,0.00,VWS V14.01,2013-03-02 23:20:00,
2013-03-02 18:22:00,49.6,22.4,29.82,WNW,292,1.6,4.0,34,0.00,,---,0.00,VWS V14.01,2013-03-02 23:22:00,
2013-03-02 18:25:00,48.2,22.5,29.82,West,270,0.0,0.0,36,0.00,,---,0.00,VWS V14.01,2013-03-02 23:25:00,
2013-03-02 18:27:00,49.5,21.6,29.82,West,270,3.4,3.8,33,0.00,,---,0.00,VWS V14.01,2013-03-02 23:27:00,
2013-03-02 18:30:00,47.8,22.2,29.82,West,270,0.0,0.0,36,0.00,,---,0.00,VWS V14.01,2013-03-02 23:30:00,
2013-03-02 18:32:00,49.3,21.4,29.82,West,270,1.1,4.0,33,0.00,,---,0.00,VWS V14.01,2013-03-02 23:32:00,
2013-03-02 18:35:00,47.5,22.5,29.82,SSW,202,0.0,0.0,37,0.00,,---,0.00,VWS V14.01,2013-03-02 23:35:00,
2013-03-02 18:37:00,48.7,21.6,29.82,West,270,0.0,2.5,34,0.00,,---,0.00,VWS V14.01,2013-03-02 23:37:00,
2013-03-02 18:40:00,46.9,22.0,29.82,SSW,202,0.0,0.0,37,0.00,,---,0.00,VWS V14.01,2013-03-02 23:40:00,
2013-03-02 18:42:00,48.6,21.5,29.82,NW,315,0.0,2.5,34,0.00,,---,0.00,VWS V14.01,2013-03-02 23:42:00,
2013-03-02 18:45:00,46.4,21.6,29.82,South,180,0.0,0.0,37,0.00,,---,0.00,VWS V14.01,2013-03-02 23:45:00,
2013-03-02 18:47:00,48.6,21.5,29.82,NNW,338,5.8,5.8,34,0.00,,---,0.00,VWS V14.01,2013-03-02 23:47:00,
2013-03-02 18:50:00,46.2,21.4,29.82,SW,225,0.0,0.0,37,0.00,,---,0.00,VWS V14.01,2013-03-02 23:50:00,
2013-03-02 18:52:00,48.2,21.2,29.82,WNW,292,0.0,1.6,34,0.00,,---,0.00,VWS V14.01,2013-03-02 23:52:00,
2013-03-02 18:55:00,46.0,21.2,29.82,South,180,0.0,0.0,37,0.00,,---,0.00,VWS V14.01,2013-03-02 23:55:00,
2013-03-02 18:57:00,48.6,22.2,29.82,North,0,2.2,3.6,35,0.00,,---,0.00,VWS V14.01,2013-03-02 23:57:00,
2013-03-02 19:00:00,46.2,22.0,29.85,South,180,0.0,0.0,38,0.00,,---,0.00,VWS V14.01,2013-03-03 00:00:00,
2013-03-02 19:02:00,48.2,21.9,29.82,SW,225,0.0,2.9,35,0.00,,---,0.00,VWS V14.01,2013-03-03 00:02:00,
2013-03-02 19:05:00,46.0,21.9,29.85,South,180,0.0,0.0,38,0.00,,---,0.00,VWS V14.01,2013-03-03 00:05:00,
2013-03-02 19:07:00,47.8,21.5,29.82,WNW,292,0.0,2.7,35,0.00,,---,0.00,VWS V14.01,2013-03-03 00:07:00,
2013-03-02 19:10:00,45.9,21.7,29.85,South,180,0.0,0.0,38,0.00,,---,0.00,VWS V14.01,2013-03-03 00:10:00,
2013-03-02 19:12:00,48.0,22.4,29.82,WSW,248,0.0,3.4,36,0.00,,---,0.00,VWS V14.01,2013-03-03 00:12:00,
2013-03-02 19:15:00,46.0,21.9,29.82,South,180,0.0,0.0,38,0.00,,---,0.00,VWS V14.01,2013-03-03 00:15:00,
2013-03-02 19:17:00,48.4,22.7,29.82,WSW,248,0.0,0.0,36,0.00,,---,0.00,VWS V14.01,2013-03-03 00:17:00,
2013-03-02 19:20:00,46.0,21.9,29.82,South,180,0.0,0.0,38,0.00,,---,0.00,VWS V14.01,2013-03-03 00:20:00,
2013-03-02 19:22:00,48.4,22.7,29.82,WSW,248,0.0,0.0,36,0.00,,---,0.00,VWS V14.01,2013-03-03 00:22:00,
2013-03-02 19:25:00,45.9,22.3,29.82,South,180,0.0,0.0,39,0.00,,---,0.00,VWS V14.01,2013-03-03 00:25:00,
2013-03-02 19:27:00,48.2,22.5,29.82,West,270,0.0,0.0,36,0.00,,---,0.00,VWS V14.01,2013-03-03 00:27:00,
2013-03-02 19:30:00,45.9,22.3,29.85,South,180,0.0,0.0,39,0.00,,---,0.00,VWS V14.01,2013-03-03 00:30:00,
2013-03-02 19:32:00,47.8,22.2,29.82,West,270,0.0,0.0,36,0.00,,---,0.00,VWS V14.01,2013-03-03 00:32:00,
2013-03-02 19:35:00,45.9,22.3,29.85,SSE,158,0.0,0.0,39,0.00,,---,0.00,VWS V14.01,2013-03-03 00:35:00,
2013-03-02 19:37:00,47.3,22.4,29.82,SSW,202,0.0,0.0,37,0.00,,---,0.00,VWS V14.01,2013-03-03 00:37:00,
2013-03-02 19:40:00,45.9,22.9,29.85,SSE,158,0.0,0.0,40,0.00,,---,0.00,VWS V14.01,2013-03-03 00:40:00,
2013-03-02 19:42:00,46.8,21.9,29.82,SSW,202,0.0,0.0,37,0.00,,---,0.00,VWS V14.01,2013-03-03 00:42:00,
2013-03-02 19:45:00,46.4,23.4,29.85,WNW,292,0.0,2.9,40,0.00,,---,0.00,VWS V14.01,2013-03-03 00:45:00,
2013-03-02 19:47:00,46.4,21.6,29.82,South,180,0.0,0.0,37,0.00,,---,0.00,VWS V14.01,2013-03-03 00:47:00,
2013-03-02 19:50:00,46.8,23.7,29.85,WNW,292,0.0,2.9,40,0.00,,---,0.00,VWS V14.01,2013-03-03 00:50:00,
2013-03-02 19:52:00,46.2,21.4,29.82,South,180,0.0,0.0,37,0.00,,---,0.00,VWS V14.01,2013-03-03 00:52:00,
2013-03-02 19:55:00,46.6,23.6,29.85,West,270,0.0,2.5,40,0.00,,---,0.00,VWS V14.01,2013-03-03 00:55:00,
2013-03-02 19:57:00,46.0,21.2,29.85,South,180,0.0,0.0,37,0.00,,---,0.00,VWS V14.01,2013-03-03 00:57:00,
2013-03-02 20:00:00,46.0,23.1,29.85,NW,315,0.0,0.0,40,0.00,,---,0.00,VWS V14.01,2013-03-03 01:00:00,
2013-03-02 20:02:00,46.0,21.9,29.85,South,180,0.0,0.0,38,0.00,,---,0.00,VWS V14.01,2013-03-03 01:02:00,
2013-03-02 20:05:00,45.9,22.9,29.85,West,270,0.0,0.0,40,0.00,,---,0.00,VWS V14.01,2013-03-03 01:05:00,
2013-03-02 20:07:00,46.0,21.9,29.85,South,180,0.0,0.0,38,0.00,,---,0.00,VWS V14.01,2013-03-03 01:07:00,
2013-03-02 20:10:00,45.3,22.4,29.85,WNW,292,0.0,0.0,40,0.00,,---,0.00,VWS V14.01,2013-03-03 01:10:00,
2013-03-02 20:12:00,45.9,21.7,29.82,South,180,0.0,0.0,38,0.00,,---,0.00,VWS V14.01,2013-03-03 01:12:00,
2013-03-02 20:15:00,44.8,22.0,29.85,West,270,0.0,0.0,40,0.00,,---,0.00,VWS V14.01,2013-03-03 01:15:00,
2013-03-02 20:17:00,46.2,22.0,29.82,South,180,0.0,0.0,38,0.00,,---,0.00,VWS V14.01,2013-03-03 01:17:00,
2013-03-02 20:20:00,44.6,21.8,29.85,West,270,0.0,0.0,40,0.00,,---,0.00,VWS V14.01,2013-03-03 01:20:00,
2013-03-02 20:22:00,45.9,22.3,29.82,South,180,0.0,0.0,39,0.00,,---,0.00,VWS V14.01,2013-03-03 01:22:00,
2013-03-02 20:25:00,44.2,22.0,29.85,West,270,0.0,0.0,41,0.00,,---,0.00,VWS V14.01,2013-03-03 01:25:00,
2013-03-02 20:27:00,45.9,22.3,29.85,South,180,0.0,0.0,39,0.00,,---,0.00,VWS V14.01,2013-03-03 01:27:00,
2013-03-02 20:30:00,44.1,21.9,29.85,NW,315,0.0,1.1,41,0.00,,---,0.00,VWS V14.01,2013-03-03 01:30:00,
2013-03-02 20:32:00,45.9,22.3,29.85,SSE,158,0.0,0.0,39,0.00,,---,0.00,VWS V14.01,2013-03-03 01:32:00,
2013-03-02 20:35:00,44.1,21.9,29.85,West,270,0.0,0.0,41,0.00,,---,0.00,VWS V14.01,2013-03-03 01:35:00,
2013-03-02 20:37:00,45.9,22.3,29.85,SSE,158,0.0,0.0,39,0.00,,---,0.00,VWS V14.01,2013-03-03 01:37:00,
2013-03-02 20:40:00,44.1,21.9,29.85,West,270,0.0,0.0,41,0.00,,---,0.00,VWS V14.01,2013-03-03 01:40:00,
2013-03-02 20:42:00,45.9,22.9,29.85,NNW,338,0.0,0.0,40,0.00,,---,0.00,VWS V14.01,2013-03-03 01:42:00,
2013-03-02 20:45:00,43.5,22.0,29.85,West,270,0.0,0.0,42,0.00,,---,0.00,VWS V14.01,2013-03-03 01:45:00,
2013-03-02 20:47:00,46.6,23.6,29.85,NW,315,0.0,0.0,40,0.00,,---,0.00,VWS V14.01,2013-03-03 01:47:00,
2013-03-02 20:50:00,43.5,22.0,29.85,WSW,248,0.0,0.0,42,0.00,,---,0.00,VWS V14.01,2013-03-03 01:50:00,
2013-03-02 20:52:00,46.8,23.7,29.85,WSW,248,0.0,2.5,40,0.00,,---,0.00,VWS V14.01,2013-03-03 01:52:00,
2013-03-02 20:55:00,42.6,21.7,29.85,WSW,248,0.0,0.0,43,0.00,,---,0.00,VWS V14.01,2013-03-03 01:55:00,
2013-03-02 20:57:00,46.4,23.4,29.85,NW,315,0.0,0.0,40,0.00,,---,0.00,VWS V14.01,2013-03-03 01:57:00,
2013-03-02 21:00:00,42.3,21.4,29.85,WSW,248,0.0,0.0,43,0.00,,---,0.00,VWS V14.01,2013-03-03 02:00:00,
2013-03-02 21:02:00,45.9,22.9,29.85,WNW,292,0.0,0.0,40,0.00,,---,0.00,VWS V14.01,2013-03-03 02:02:00,
2013-03-02 21:05:00,41.9,21.0,29.85,WSW,248,0.0,0.0,43,0.00,,---,0.00,VWS V14.01,2013-03-03 02:05:00,
2013-03-02 21:07:00,45.7,22.8,29.85,NW,315,0.0,0.0,40,0.00,,---,0.00,VWS V14.01,2013-03-03 02:07:00,
2013-03-02 21:10:00,41.5,21.3,29.85,WSW,248,0.0,0.0,44,0.00,,---,0.00,VWS V14.01,2013-03-03 02:10:00,
2013-03-02 21:12:00,45.1,22.3,29.85,WNW,292,0.0,0.0,40,0.00,,---,0.00,VWS V14.01,2013-03-03 02:12:00,
2013-03-02 21:15:00,41.0,20.8,29.85,WSW,248,0.0,0.0,44,0.00,,---,0.00,VWS V14.01,2013-03-03 02:15:00,
2013-03-02 21:18:00,44.8,22.0,29.85,West,270,0.0,0.0,40,0.00,,---,0.00,VWS V14.01,2013-03-03 02:18:00,
2013-03-02 21:20:00,40.8,21.1,29.85,WSW,248,0.0,0.0,45,0.00,,---,0.00,VWS V14.01,2013-03-03 02:20:00,
2013-03-02 21:23:00,44.2,22.0,29.85,WNW,292,0.0,0.0,41,0.00,,---,0.00,VWS V14.01,2013-03-03 02:23:00,
2013-03-02 21:25:00,40.3,20.6,29.85,WSW,248,0.0,0.0,45,0.00,,---,0.00,VWS V14.01,2013-03-03 02:25:00,
2013-03-02 21:28:00,44.2,22.0,29.85,WNW,292,0.0,0.0,41,0.00,,---,0.00,VWS V14.01,2013-03-03 02:28:00,
2013-03-02 21:30:00,39.9,20.8,29.85,West,270,0.0,0.0,46,0.00,,---,0.00,VWS V14.01,2013-03-03 02:30:00,
2013-03-02 21:33:00,44.2,22.0,29.85,WNW,292,0.0,0.0,41,0.00,,---,0.00,VWS V14.01,2013-03-03 02:33:00,
2013-03-02 21:35:00,40.5,22.3,29.85,NNW,338,2.0,2.0,48,0.00,,---,0.00,VWS V14.01,2013-03-03 02:35:00,
2013-03-02 21:38:00,44.1,21.9,29.85,West,270,0.0,0.0,41,0.00,,---,0.00,VWS V14.01,2013-03-03 02:38:00,
2013-03-02 21:40:00,41.9,24.1,29.85,NW,315,2.9,4.0,49,0.00,,---,0.00,VWS V14.01,2013-03-03 02:40:00,
2013-03-02 21:43:00,43.7,21.6,29.85,West,270,0.0,0.0,41,0.00,,---,0.00,VWS V14.01,2013-03-03 02:43:00,
2013-03-02 21:45:00,42.6,24.8,29.85,NNW,338,2.9,5.6,49,0.00,,---,0.00,VWS V14.01,2013-03-03 02:45:00,
2013-03-02 21:48:00,43.5,22.0,29.85,WSW,248,0.0,0.0,42,0.00,,---,0.00,VWS V14.01,2013-03-03 02:48:00,
2013-03-02 21:50:00,42.6,24.3,29.85,WNW,292,3.4,4.9,48,0.00,,---,0.00,VWS V14.01,2013-03-03 02:50:00,
2013-03-02 21:53:00,43.2,21.6,29.85,WSW,248,0.0,0.0,42,0.00,,---,0.00,VWS V14.01,2013-03-03 02:53:00,
2013-03-02 21:55:00,42.4,23.6,29.85,NNW,338,0.9,3.8,47,0.00,,---,0.00,VWS V14.01,2013-03-03 02:55:00,
2013-03-02 21:58:00,42.4,21.5,29.85,WSW,248,0.0,0.0,43,0.00,,---,0.00,VWS V14.01,2013-03-03 02:58:00,
2013-03-02 22:00:00,42.1,22.8,29.85,NNW,338,2.0,2.7,46,0.00,,---,0.00,VWS V14.01,2013-03-03 03:00:00,
2013-03-02 22:03:00,42.1,21.2,29.85,WSW,248,0.0,0.0,43,0.00,,---,0.00,VWS V14.01,2013-03-03 03:03:00,
2013-03-02 22:05:00,42.3,22.5,29.85,NNW,338,1.1,4.9,45,0.00,,---,0.00,VWS V14.01,2013-03-03 03:05:00,
2013-03-02 22:08:00,41.7,20.9,29.85,WSW,248,0.0,0.0,43,0.00,,---,0.00,VWS V14.01,2013-03-03 03:08:00,
2013-03-02 22:10:00,42.3,22.5,29.85,NW,315,0.0,2.5,45,0.00,,---,0.00,VWS V14.01,2013-03-03 03:10:00,
2013-03-02 22:13:00,41.2,20.9,29.85,WSW,248,0.0,0.0,44,0.00,,---,0.00,VWS V14.01,2013-03-03 03:13:00,
2013-03-02 22:15:00,42.4,22.1,29.85,WNW,292,0.0,1.3,44,0.00,,---,0.00,VWS V14.01,2013-03-03 03:15:00,
2013-03-02 22:18:00,40.8,20.6,29.85,WSW,248,0.0,0.0,44,0.00,,---,0.00,VWS V14.01,2013-03-03 03:18:00,
2013-03-02 22:20:00,42.6,22.2,29.85,NW,315,0.0,1.3,44,0.00,,---,0.00,VWS V14.01,2013-03-03 03:20:00,
2013-03-02 22:23:00,40.5,20.8,29.85,WSW,248,0.0,0.0,45,0.00,,---,0.00,VWS V14.01,2013-03-03 03:23:00,
2013-03-02 22:25:00,42.8,21.9,29.85,NNW,338,0.0,1.1,43,0.00,,---,0.00,VWS V14.01,2013-03-03 03:25:00,
2013-03-02 22:28:00,40.3,21.2,29.85,WSW,248,0.0,0.0,46,0.00,,---,0.00,VWS V14.01,2013-03-03 03:28:00,
2013-03-02 22:30:00,42.6,21.7,29.85,ESE,112,0.0,0.0,43,0.00,,---,0.00,VWS V14.01,2013-03-03 03:30:00,
2013-03-02 22:33:00,40.3,21.7,29.85,NNW,338,1.6,1.6,47,0.00,,---,0.00,VWS V14.01,2013-03-03 03:33:00,
2013-03-02 22:35:00,42.4,21.5,29.85,NNW,338,0.0,1.1,43,0.00,,---,0.00,VWS V14.01,2013-03-03 03:35:00,
2013-03-02 22:38:00,40.6,23.0,29.85,NNW,338,1.3,2.9,49,0.00,,---,0.00,VWS V14.01,2013-03-03 03:38:00,
2013-03-02 22:40:00,42.6,21.7,29.85,NNW,338,1.1,2.9,43,0.00,,---,0.00,VWS V14.01,2013-03-03 03:40:00,
2013-03-02 22:43:00,42.3,24.5,29.85,NW,315,2.0,3.8,49,0.00,,---,0.00,VWS V14.01,2013-03-03 03:43:00,
2013-03-02 22:45:00,43.0,21.5,29.85,West,270,3.6,6.3,42,0.00,,---,0.00,VWS V14.01,2013-03-03 03:45:00,
2013-03-02 22:48:00,42.6,24.3,29.85,NNW,338,2.5,4.9,48,0.00,,---,0.00,VWS V14.01,2013-03-03 03:48:00,
2013-03-02 22:50:00,43.0,20.9,29.85,WNW,292,2.0,3.6,41,0.00,,---,0.00,VWS V14.01,2013-03-03 03:50:00,
2013-03-02 22:53:00,42.6,24.3,29.85,NW,315,1.1,3.8,48,0.00,,---,0.00,VWS V14.01,2013-03-03 03:53:00,
2013-03-02 22:55:00,43.2,21.1,29.85,NNW,338,1.6,4.7,41,0.00,,---,0.00,VWS V14.01,2013-03-03 03:55:00,
2013-03-02 22:58:00,42.3,23.5,29.85,WNW,292,2.5,2.7,47,0.00,,---,0.00,VWS V14.01,2013-03-03 03:58:00,
2013-03-02 23:00:00,43.2,21.1,29.85,NNW,338,1.6,2.9,41,0.00,,---,0.00,VWS V14.01,2013-03-03 04:00:00,
2013-03-02 23:03:00,42.1,22.8,29.85,NNW,338,0.9,2.7,46,0.00,,---,0.00,VWS V14.01,2013-03-03 04:03:00,
2013-03-02 23:05:00,43.2,21.1,29.85,NNW,338,2.9,2.9,41,0.00,,---,0.00,VWS V14.01,2013-03-03 04:05:00,
2013-03-02 23:08:00,42.4,22.6,29.85,NNW,338,0.0,2.5,45,0.00,,---,0.00,VWS V14.01,2013-03-03 04:08:00,
2013-03-02 23:10:00,43.2,20.5,29.85,NNW,338,3.6,3.6,40,0.00,,---,0.00,VWS V14.01,2013-03-03 04:10:00,
2013-03-02 23:13:00,42.4,22.1,29.85,WNW,292,0.0,1.3,44,0.00,,---,0.00,VWS V14.01,2013-03-03 04:13:00,
2013-03-02 23:15:00,43.0,20.3,29.85,NW,315,3.1,4.0,40,0.00,,---,0.00,VWS V14.01,2013-03-03 04:15:00,
2013-03-02 23:18:00,42.6,22.2,29.85,WNW,292,0.0,1.3,44,0.00,,---,0.00,VWS V14.01,2013-03-03 04:18:00,
2013-03-02 23:20:00,43.0,20.3,29.85,NNW,338,1.6,4.0,40,0.00,,---,0.00,VWS V14.01,2013-03-03 04:20:00,
2013-03-02 23:23:00,42.6,22.2,29.85,East,90,0.0,1.1,44,0.00,,---,0.00,VWS V14.01,2013-03-03 04:23:00,
2013-03-02 23:25:00,43.0,20.3,29.85,NNW,338,1.6,4.0,40,0.00,,---,0.00,VWS V14.01,2013-03-03 04:25:00,
2013-03-02 23:28:00,42.8,21.9,29.85,West,270,0.0,0.0,43,0.00,,---,0.00,VWS V14.01,2013-03-03 04:28:00,
2013-03-02 23:30:00,43.0,20.3,29.85,NNW,338,1.1,3.4,40,0.00,,---,0.00,VWS V14.01,2013-03-03 04:30:00,
2013-03-02 23:33:00,42.6,21.7,29.85,NW,315,0.0,1.1,43,0.00,,---,0.00,VWS V14.01,2013-03-03 04:33:00,
2013-03-02 23:35:00,42.8,20.2,29.85,NW,315,1.3,3.4,40,0.00,,---,0.00,VWS V14.01,2013-03-03 04:35:00,
2013-03-02 23:38:00,42.4,21.5,29.85,WNW,292,0.9,2.9,43,0.00,,---,0.00,VWS V14.01,2013-03-03 04:38:00,
2013-03-02 23:40:00,42.8,20.2,29.85,NNW,338,0.0,2.9,40,0.00,,---,0.00,VWS V14.01,2013-03-03 04:40:00,
2013-03-02 23:43:00,42.6,21.1,29.85,WNW,292,1.6,3.1,42,0.00,,---,0.00,VWS V14.01,2013-03-03 04:43:00,
2013-03-02 23:45:00,42.8,19.6,29.85,NNW,338,1.1,3.6,39,0.00,,---,0.00,VWS V14.01,2013-03-03 04:45:00,
2013-03-02 23:48:00,43.0,20.9,29.85,NNW,338,1.3,3.6,41,0.00,,---,0.00,VWS V14.01,2013-03-03 04:48:00,
2013-03-02 23:50:00,42.8,19.6,29.85,NNW,338,1.1,2.9,39,0.00,,---,0.00,VWS V14.01,2013-03-03 04:50:00,
2013-03-02 23:53:00,43.0,20.9,29.85,WNW,292,0.0,2.7,41,0.00,,---,0.00,VWS V14.01,2013-03-03 04:53:00,
2013-03-02 23:55:00,42.6,20.0,29.85,NW,315,0.0,2.5,40,0.00,,---,0.00,VWS V14.01,2013-03-03 04:55:00,
2013-03-02 23:58:00,43.2,21.1,29.85,WNW,292,2.2,2.9,41,0.00,,---,0.00,VWS V14.01,2013-03-03 04:58:00,